createdAt,value
2022-08-12T00:02:02.139Z,100534.78
2022-08-12T00:04:49.653Z,100527.13
2022-08-12T00:07:49.489Z,100527.13
2022-08-12T00:10:55.658Z,100537.56
2022-08-12T00:14:00.625Z,100546.38
2022-08-12T00:17:00.925Z,100531.94
2022-08-12T00:20:06.579Z,100527.13
2022-08-12T00:23:07.858Z,100536.34
2022-08-12T00:26:23.795Z,100538.75
2022-08-12T00:29:23.865Z,100543.56
2022-08-12T00:32:35.897Z,100545.56
2022-08-12T00:35:36.720Z,100547.19
2022-08-12T00:38:41.591Z,100542.75
2022-08-12T00:41:43.446Z,100543.97
2022-08-12T00:44:34.597Z,100547.16
2022-08-12T00:47:24.084Z,100547.16
2022-08-12T00:50:05.617Z,100549.56
2022-08-12T00:52:48.011Z,100553.56
2022-08-12T00:55:34.553Z,100555.97
2022-08-12T00:58:26.683Z,100557.19
2022-08-12T01:01:11.655Z,100553.94
2022-08-12T01:04:17.583Z,100552.34
2022-08-12T01:07:26.569Z,100547.91
2022-08-12T01:10:33.152Z,100549.91
2022-08-12T01:13:19.073Z,100555.09
2022-08-12T01:16:08.577Z,100556.66
2022-08-12T01:18:55.562Z,100551.81
2022-08-12T01:22:24.550Z,100549.41
2022-08-12T01:25:22.048Z,100552.66
2022-08-12T01:28:10.542Z,100546.59
2022-08-12T01:30:51.690Z,100551.81
2022-08-12T01:34:36.584Z,100539.78
2022-08-12T01:37:08.639Z,100539.34
2022-08-12T01:40:34.913Z,100542.59
2022-08-12T01:43:10.518Z,100546.97
2022-08-12T01:45:59.491Z,100543.78
2022-08-12T01:49:00.535Z,100540.53
2022-08-12T01:52:20.361Z,100538.97
2022-08-12T01:54:59.518Z,100539.34
2022-08-12T01:57:58.431Z,100550.13
2022-08-12T02:00:56.201Z,100544.16
2022-08-12T02:04:07.548Z,100549.34
2022-08-12T02:07:29.129Z,100540.53
2022-08-12T02:10:50.213Z,100534.88
2022-08-12T02:14:17.471Z,100538.84
2022-08-12T02:17:55.901Z,100547.28
2022-08-12T02:20:34.275Z,100536.81
2022-08-12T02:23:29.286Z,100540.78
2022-08-12T02:26:22.433Z,100532.38
2022-08-12T02:29:03.892Z,100534.00
2022-08-12T02:31:52.513Z,100538.75
2022-08-12T02:34:34.618Z,100534.31
2022-08-12T02:37:22.460Z,100543.16
2022-08-12T02:40:03.883Z,100548.72
2022-08-12T02:42:52.450Z,100545.09
2022-08-12T02:45:56.801Z,100533.00
2022-08-12T02:49:04.483Z,100536.56
2022-08-12T02:51:52.445Z,100541.34
2022-08-12T03:12:33.701Z,100557.72
2022-08-12T03:15:24.044Z,100547.09
2022-08-12T03:18:28.664Z,100552.38
2022-08-12T03:21:09.126Z,100551.25
2022-08-12T03:23:58.574Z,100552.81
2022-08-12T03:26:40.095Z,100548.81
2022-08-12T03:29:29.595Z,100556.47
2022-08-12T03:32:10.392Z,100548.47
2022-08-12T03:35:40.373Z,100543.69
2022-08-12T03:38:29.560Z,100546.13
2022-08-12T03:41:36.871Z,100550.59
2022-08-12T03:44:51.521Z,100549.31
2022-08-12T03:48:19.233Z,100546.94
2022-08-12T03:51:26.580Z,100545.34
2022-08-12T03:54:32.555Z,100537.84
2022-08-12T03:57:31.691Z,100547.97
2022-08-12T04:00:32.742Z,100543.53
2022-08-12T04:03:31.942Z,100552.00
2022-08-12T04:06:18.534Z,100549.25
2022-08-12T04:09:20.464Z,100552.19
2022-08-12T04:12:26.158Z,100555.47
2022-08-12T04:15:14.562Z,100552.41
2022-08-12T04:18:06.552Z,100559.25
2022-08-12T04:20:55.536Z,100560.06
2022-08-12T04:23:48.384Z,100553.25
2022-08-12T04:26:29.517Z,100565.25
2022-08-12T04:29:17.499Z,100559.59
2022-08-12T04:31:57.829Z,100566.69
2022-08-12T04:34:45.527Z,100561.47
2022-08-12T04:37:58.905Z,100567.06
2022-08-12T04:40:38.681Z,100563.44
2022-08-12T04:44:01.423Z,100565.00
2022-08-12T04:46:30.569Z,100558.72
2022-08-12T04:49:21.450Z,100564.09
2022-08-12T04:52:10.450Z,100565.34
2022-08-12T04:54:52.140Z,100563.25
2022-08-12T04:57:38.490Z,100555.59
2022-08-12T05:00:25.484Z,100573.03
2022-08-12T05:03:05.636Z,100561.69
2022-08-12T05:05:53.492Z,100565.22
2022-08-12T05:08:34.556Z,100566.84
2022-08-12T05:11:21.447Z,100564.06
2022-08-12T05:14:12.473Z,100562.69
2022-08-12T05:17:01.449Z,100560.38
2022-08-12T05:19:48.452Z,100568.91
2022-08-12T05:22:38.174Z,100562.66
2022-08-12T05:25:26.454Z,100567.75
2022-08-12T05:28:07.140Z,100560.72
2022-08-12T05:30:54.462Z,100553.38
2022-08-12T05:33:38.430Z,100549.91
2022-08-12T05:36:27.430Z,100549.22
2022-08-12T05:39:07.903Z,100546.31
2022-08-12T05:41:54.426Z,100545.91
2022-08-12T05:44:41.455Z,100543.09
2022-08-12T05:47:52.973Z,100539.84
2022-08-12T05:50:35.428Z,100548.44
2022-08-12T05:53:22.422Z,100542.59
2022-08-12T05:56:03.012Z,100544.31
2022-08-12T05:58:49.409Z,100531.69
2022-08-12T06:02:12.642Z,100552.06
2022-08-12T06:04:37.416Z,100553.03
2022-08-12T06:07:37.356Z,100550.88
2022-08-12T06:10:39.401Z,100549.09
2022-08-12T06:13:52.609Z,100555.88
2022-08-12T06:16:28.762Z,100545.94
2022-08-12T06:19:16.421Z,100550.38
2022-08-12T06:21:56.634Z,100550.19
2022-08-12T06:24:43.419Z,100547.81
2022-08-12T06:27:23.489Z,100549.69
2022-08-12T06:30:14.369Z,100551.66
2022-08-12T06:33:21.507Z,100547.63
2022-08-12T06:36:04.854Z,100547.63
2022-08-12T06:38:51.392Z,100541.06
2022-08-12T06:42:25.301Z,100543.41
2022-08-12T06:44:57.395Z,100540.72
2022-08-12T06:47:37.932Z,100546.13
2022-08-12T06:50:24.389Z,100546.09
2022-08-12T06:53:05.620Z,100552.81
2022-08-12T06:55:57.758Z,100549.66
2022-08-12T06:58:46.342Z,100553.25
2022-08-12T07:01:34.337Z,100552.47
2022-08-12T07:04:39.069Z,100549.88
2022-08-12T07:07:19.441Z,100552.72
2022-08-12T07:10:08.438Z,100555.00
2022-08-12T07:12:55.502Z,100549.00
2022-08-12T07:15:37.336Z,100558.81
2022-08-12T07:18:26.342Z,100549.41
2022-08-12T07:21:15.350Z,100557.34
2022-08-12T07:24:09.333Z,100557.03
2022-08-12T07:26:49.525Z,100557.47
2022-08-12T07:30:02.720Z,100547.44
2022-08-12T07:32:44.317Z,100552.63
2022-08-12T07:35:24.397Z,100553.69
2022-08-12T07:38:32.407Z,100555.50
2022-08-12T07:41:26.480Z,100556.31
2022-08-12T07:44:15.305Z,100555.78
2022-08-12T07:46:55.396Z,100550.34
2022-08-12T07:50:03.438Z,100542.06
2022-08-12T07:52:45.320Z,100543.31
2022-08-12T07:55:25.553Z,100538.69
2022-08-12T07:58:12.273Z,100540.47
2022-08-12T08:01:01.282Z,100544.69
2022-08-12T08:04:09.243Z,100542.81
2022-08-12T08:06:51.305Z,100547.56
2022-08-12T08:09:31.937Z,100550.25
2022-08-12T08:12:36.304Z,100546.44
2022-08-12T08:15:38.643Z,100550.69
2022-08-12T08:18:26.837Z,100538.81
2022-08-12T08:21:15.280Z,100538.22
2022-08-12T08:24:13.894Z,100532.88
2022-08-12T08:27:05.254Z,100540.56
2022-08-12T08:29:45.579Z,100543.53
2022-08-12T08:32:32.269Z,100539.00
2022-08-12T08:35:14.718Z,100543.69
2022-08-12T08:38:33.304Z,100545.44
2022-08-12T08:42:17.697Z,100540.09
2022-08-12T08:44:54.093Z,100534.78
2022-08-12T08:48:00.128Z,100534.09
2022-08-12T08:50:40.427Z,100536.16
2022-08-12T08:53:27.258Z,100540.94
2022-08-12T08:56:17.233Z,100534.50
2022-08-12T08:59:04.747Z,100535.84
2022-08-12T09:01:52.338Z,100526.50
2022-08-12T09:05:12.658Z,100529.94
2022-08-12T09:07:51.134Z,100529.47
2022-08-12T09:10:45.436Z,100517.75
2022-08-12T09:16:42.674Z,100507.16
2022-08-12T09:19:33.454Z,100513.44
2022-08-12T09:22:18.597Z,100515.19
2022-08-12T09:25:07.433Z,100505.88
2022-08-12T09:28:03.682Z,100512.09
2022-08-12T09:31:04.196Z,100503.56
2022-08-12T09:34:29.259Z,100503.59
2022-08-12T09:37:19.327Z,100497.50
2022-08-12T09:41:02.067Z,100494.13
2022-08-12T09:43:26.582Z,100487.06
2022-08-12T09:46:22.170Z,100493.03
2022-08-12T09:49:16.497Z,100488.44
2022-08-12T09:51:57.244Z,100489.16
2022-08-12T09:54:44.214Z,100476.19
2022-08-12T09:58:46.719Z,100475.47
2022-08-12T10:00:52.176Z,100479.94
2022-08-12T10:03:34.708Z,100481.53
2022-08-12T10:06:54.289Z,100475.25
2022-08-12T10:09:57.130Z,100466.84
2022-08-12T10:13:07.775Z,100476.34
2022-08-12T10:16:01.622Z,100470.97
2022-08-12T10:18:56.199Z,100461.47
2022-08-12T10:21:45.170Z,100467.31
2022-08-12T10:24:32.140Z,100463.06
2022-08-12T10:28:04.261Z,100464.56
2022-08-12T10:30:44.181Z,100454.91
2022-08-12T10:33:54.848Z,100462.94
2022-08-12T10:36:40.595Z,100450.06
2022-08-12T10:40:01.501Z,100454.91
2022-08-12T10:43:04.135Z,100457.63
2022-08-12T10:45:46.042Z,100455.75
2022-08-12T10:48:33.930Z,100440.78
2022-08-12T10:52:02.982Z,100451.63
2022-08-12T10:54:29.149Z,100451.38
2022-08-12T10:57:18.238Z,100460.53
2022-08-12T11:00:34.470Z,100448.44
2022-08-12T11:04:27.680Z,100443.06
2022-08-12T11:07:09.658Z,100444.09
2022-08-12T11:09:55.547Z,100441.78
2022-08-12T11:12:59.950Z,100436.66
2022-08-12T11:16:02.592Z,100432.84
2022-08-12T11:18:48.130Z,100445.25
2022-08-12T11:21:57.130Z,100443.38
2022-08-12T11:24:42.107Z,100437.44
2022-08-12T11:27:38.224Z,100437.75
2022-08-12T11:30:31.046Z,100444.88
2022-08-12T11:33:24.439Z,100447.47
2022-08-12T11:36:22.110Z,100432.28
2022-08-12T11:39:05.136Z,100437.91
2022-08-12T11:41:52.056Z,100435.09
2022-08-12T11:44:43.117Z,100438.53
2022-08-12T11:47:23.012Z,100457.84
2022-08-12T11:50:11.696Z,100456.69
2022-08-12T11:52:56.538Z,100460.31
2022-08-12T11:55:46.732Z,100466.06
2022-08-12T11:59:02.765Z,100449.03
2022-08-12T12:02:04.784Z,100464.56
2022-08-12T12:04:34.326Z,100449.03
2022-08-12T12:07:21.062Z,100463.88
2022-08-12T12:10:01.487Z,100465.03
2022-08-12T12:12:50.754Z,100466.56
2022-08-12T12:15:40.632Z,100461.38
2022-08-12T12:18:34.050Z,100467.97
2022-08-12T12:21:47.323Z,100460.09
2022-08-12T12:24:25.023Z,100463.59
2022-08-12T12:27:18.178Z,100456.06
2022-08-12T12:30:19.470Z,100465.13
2022-08-12T12:33:06.033Z,100463.19
2022-08-12T12:36:18.581Z,100455.25
2022-08-12T12:38:54.496Z,100447.75
2022-08-12T12:42:43.904Z,100455.59
2022-08-12T12:44:51.048Z,100455.38
2022-08-12T12:47:34.228Z,100442.88
2022-08-12T12:50:35.720Z,100453.44
2022-08-12T12:54:06.598Z,100445.38
2022-08-12T12:56:34.459Z,100449.13
2022-08-12T12:59:54.996Z,100446.03
2022-08-12T13:02:42.248Z,100439.94
2022-08-12T13:05:45.982Z,100449.47
2022-08-12T13:08:36.187Z,100436.31
2022-08-12T13:11:22.980Z,100444.06
2022-08-12T13:14:29.036Z,100442.09
2022-08-12T13:17:19.840Z,100427.97
2022-08-12T13:20:01.291Z,100431.97
2022-08-12T13:22:48.015Z,100441.25
2022-08-12T13:25:28.273Z,100445.72
2022-08-12T13:28:30.008Z,100436.78
2022-08-12T13:31:11.285Z,100433.38
2022-08-12T13:34:34.279Z,100421.84
2022-08-12T13:37:00.176Z,100434.22
2022-08-12T13:39:47.017Z,100434.31
2022-08-12T13:42:30.064Z,100433.78
2022-08-12T13:45:17.011Z,100430.69
2022-08-12T13:48:15.950Z,100440.19
2022-08-12T13:51:00.344Z,100443.34
2022-08-12T13:53:58.895Z,100444.25
2022-08-12T13:56:49.902Z,100434.38
2022-08-12T13:59:30.057Z,100431.44
2022-08-12T14:02:34.967Z,100443.59
2022-08-12T14:05:37.950Z,100441.59
2022-08-12T14:08:22.961Z,100442.56
2022-08-12T14:11:05.102Z,100445.69
2022-08-12T14:14:04.888Z,100433.25
2022-08-12T14:16:58.943Z,100434.88
2022-08-12T14:20:05.952Z,100424.03
2022-08-12T14:22:59.966Z,100433.34
2022-08-12T14:26:01.925Z,100423.66
2022-08-12T14:28:57.896Z,100426.84
2022-08-12T14:31:43.028Z,100424.84
2022-08-12T14:34:29.893Z,100432.81
2022-08-12T14:37:56.817Z,100438.19
2022-08-12T14:40:27.777Z,100421.88
2022-08-12T14:43:14.897Z,100425.31
2022-08-12T14:46:05.900Z,100420.03
2022-08-12T14:48:51.462Z,100426.66
2022-08-12T14:53:11.407Z,100417.38
2022-08-12T14:56:59.885Z,100427.75
2022-08-12T15:15:06.581Z,100407.09
2022-08-12T15:17:46.468Z,100404.41
2022-08-12T15:20:39.110Z,100402.28
2022-08-12T15:23:22.693Z,100383.91
2022-08-12T15:26:11.031Z,100383.44
2022-08-12T15:29:01.397Z,100391.22
2022-08-12T15:32:00.088Z,100386.25
2022-08-12T15:34:49.862Z,100384.75
2022-08-12T15:38:08.156Z,100389.72
2022-08-12T15:40:48.249Z,100385.16
2022-08-12T15:44:16.878Z,100392.34
2022-08-12T15:46:37.435Z,100388.25
2022-08-12T15:49:24.985Z,100385.44
2022-08-12T15:52:05.531Z,100383.16
2022-08-12T15:54:51.979Z,100380.34
2022-08-12T15:57:38.978Z,100379.38
2022-08-12T16:00:31.896Z,100382.22
2022-08-12T16:03:25.486Z,100379.59
2022-08-12T16:06:12.622Z,100382.88
2022-08-12T16:09:03.954Z,100386.03
2022-08-12T16:11:52.974Z,100380.38
2022-08-12T16:14:39.971Z,100381.41
2022-08-12T16:17:20.470Z,100380.59
2022-08-12T16:20:33.471Z,100374.22
2022-08-12T16:23:35.975Z,100375.47
2022-08-12T16:26:27.291Z,100381.53
2022-08-12T16:29:15.382Z,100379.56
2022-08-12T16:32:02.952Z,100379.84
2022-08-12T16:34:54.665Z,100375.50
2022-08-12T16:38:24.162Z,100379.38
2022-08-12T16:40:46.287Z,100375.75
2022-08-12T16:43:35.952Z,100375.75
2022-08-12T16:46:32.805Z,100374.25
2022-08-12T16:49:20.908Z,100375.09
2022-08-12T16:52:05.917Z,100375.47
2022-08-12T16:54:59.941Z,100367.03
2022-08-12T16:57:54.243Z,100372.19
2022-08-12T17:00:40.974Z,100369.81
2022-08-12T17:03:36.667Z,100376.50
2022-08-12T17:06:19.491Z,100363.22
2022-08-12T17:09:17.022Z,100378.88
2022-08-12T17:11:57.260Z,100380.84
2022-08-12T17:14:44.903Z,100390.59
2022-08-12T17:17:39.439Z,100388.53
2022-08-12T17:20:35.543Z,100398.69
2022-08-12T17:23:21.380Z,100397.81
2022-08-12T17:26:07.860Z,100399.91
2022-08-12T17:28:55.881Z,100389.47
2022-08-12T17:32:00.331Z,100407.53
2022-08-12T17:34:55.883Z,100404.47
2022-08-12T17:37:37.509Z,100404.09
2022-08-12T17:40:35.826Z,100409.63
2022-08-12T17:43:54.647Z,100408.84
2022-08-12T17:46:33.348Z,100408.00
2022-08-12T17:50:01.485Z,100412.00
2022-08-12T17:52:14.910Z,100406.38
2022-08-12T17:55:04.892Z,100415.66
2022-08-12T17:58:06.530Z,100413.25
2022-08-12T18:00:59.894Z,100410.38
2022-08-12T18:03:57.678Z,100422.03
2022-08-12T18:06:50.338Z,100420.44
2022-08-12T18:09:37.869Z,100423.75
2022-08-12T18:12:38.507Z,100415.69
2022-08-12T18:16:05.697Z,100417.78
2022-08-12T18:18:34.852Z,100414.94
2022-08-12T18:21:21.854Z,100416.50
2022-08-12T18:24:21.684Z,100417.72
2022-08-12T18:27:27.971Z,100414.66
2022-08-12T18:30:07.812Z,100414.69
2022-08-12T18:32:59.485Z,100417.47
2022-08-12T18:35:47.402Z,100423.13
2022-08-12T18:38:39.811Z,100412.25
2022-08-12T18:41:35.846Z,100418.34
2022-08-12T18:44:17.896Z,100419.16
2022-08-12T18:47:09.137Z,100421.56
2022-08-12T18:49:49.749Z,100423.22
2022-08-12T18:52:41.043Z,100421.22
2022-08-12T18:55:27.753Z,100426.09
2022-08-12T18:58:20.516Z,100428.16
2022-08-12T19:01:08.702Z,100425.38
2022-08-12T19:04:08.981Z,100427.00
2022-08-12T19:06:55.802Z,100424.97
2022-08-12T19:09:58.293Z,100416.63
2022-08-12T19:12:58.269Z,100419.09
2022-08-12T19:15:51.788Z,100418.38
2022-08-12T19:18:40.420Z,100418.00
2022-08-12T19:21:27.763Z,100424.06
2022-08-12T19:24:26.497Z,100422.94
2022-08-12T19:27:15.402Z,100425.72
2022-08-12T19:30:06.142Z,100410.44
2022-08-12T19:32:54.755Z,100410.50
2022-08-12T19:36:06.612Z,100410.94
2022-08-12T19:38:46.846Z,100405.31
2022-08-12T19:42:00.910Z,100413.38
2022-08-12T19:44:49.771Z,100412.19
2022-08-12T19:47:38.850Z,100404.56
2022-08-12T19:50:25.762Z,100410.97
2022-08-12T19:53:07.941Z,100400.53
2022-08-12T19:55:58.726Z,100404.13
2022-08-12T19:58:38.869Z,100407.75
2022-08-12T20:01:25.728Z,100404.56
2022-08-12T20:04:20.750Z,100398.56
2022-08-12T20:07:01.437Z,100401.41
2022-08-12T20:09:53.718Z,100399.38
2022-08-12T20:13:10.160Z,100392.53
2022-08-12T20:15:51.143Z,100389.38
2022-08-12T20:18:44.472Z,100378.09
2022-08-12T20:21:41.018Z,100377.31
2022-08-12T20:24:31.226Z,100373.28
2022-08-12T20:27:29.256Z,100372.06
2022-08-12T20:30:38.173Z,100371.69
2022-08-12T20:33:56.401Z,100376.91
2022-08-12T20:36:41.207Z,100378.91
2022-08-12T20:39:52.023Z,100376.50
2022-08-12T20:42:31.310Z,100368.47
2022-08-12T20:45:13.715Z,100370.47
2022-08-12T20:48:04.381Z,100368.88
2022-08-12T20:50:47.613Z,100375.28
2022-08-12T20:53:58.537Z,100372.09
2022-08-12T20:56:45.951Z,100366.09
2022-08-12T20:59:25.633Z,100364.50
2022-08-12T21:02:24.172Z,100368.50
2022-08-12T21:06:09.437Z,100372.09
2022-08-12T21:08:35.657Z,100363.25
2022-08-12T21:11:29.687Z,100362.88
2022-08-12T21:14:39.859Z,100360.44
2022-08-12T21:18:00.274Z,100366.88
2022-08-12T21:20:31.650Z,100368.06
2022-08-12T21:23:20.638Z,100359.25
2022-08-12T21:26:01.569Z,100354.81
2022-08-12T21:28:58.206Z,100362.88
2022-08-12T21:32:36.603Z,100364.47
2022-08-12T21:34:54.646Z,100359.66
2022-08-12T21:37:37.476Z,100364.91
2022-08-12T21:40:37.165Z,100358.06
2022-08-12T21:43:39.017Z,100360.06
2022-08-12T21:46:35.389Z,100350.44
2022-08-12T21:49:53.993Z,100351.63
2022-08-12T21:52:28.332Z,100347.22
2022-08-12T21:55:23.657Z,100346.44
2022-08-12T21:58:18.594Z,100346.44
2022-08-12T22:01:05.651Z,100347.25
2022-08-12T22:04:16.599Z,100342.47
2022-08-12T22:06:59.263Z,100341.25
2022-08-12T22:09:46.593Z,100340.84
2022-08-12T22:12:39.775Z,100332.81
2022-08-12T22:15:33.605Z,100337.25
2022-08-12T22:18:14.001Z,100331.22
2022-08-12T22:21:03.617Z,100325.63
2022-08-12T22:24:05.050Z,100331.63
2022-08-12T22:26:52.609Z,100322.00
2022-08-12T22:29:58.569Z,100317.19
2022-08-12T22:32:56.554Z,100321.63
2022-08-12T22:35:55.660Z,100316.78
2022-08-12T22:38:40.741Z,100312.38
2022-08-12T22:41:47.571Z,100297.16
2022-08-12T22:44:55.430Z,100295.91
2022-08-12T22:47:55.731Z,100294.31
2022-08-12T22:50:36.698Z,100297.16
2022-08-12T22:53:25.561Z,100287.47
2022-08-12T22:56:22.537Z,100284.69
2022-08-12T22:59:17.559Z,100285.47
2022-08-12T23:02:02.799Z,100284.28
2022-08-12T23:04:49.547Z,100283.09
2022-08-12T23:07:58.780Z,100279.88
2022-08-12T23:10:37.161Z,100276.25
2022-08-12T23:13:43.626Z,100278.66
2022-08-12T23:16:41.513Z,100282.25
2022-08-12T23:19:38.550Z,100280.25
2022-08-12T23:22:36.750Z,100282.66
2022-08-12T23:25:55.568Z,100273.00
2022-08-12T23:28:53.379Z,100271.41
2022-08-12T23:32:02.669Z,100269.41
2022-08-12T23:34:47.895Z,100266.56
2022-08-12T23:37:47.252Z,100267.41
2022-08-12T23:40:38.556Z,100257.72
2022-08-12T23:43:19.912Z,100264.16
2022-08-12T23:46:11.570Z,100260.16
2022-08-12T23:48:54.113Z,100262.56
2022-08-12T23:51:43.508Z,100253.34
2022-08-12T23:54:44.099Z,100262.97
2022-08-12T23:57:26.637Z,100254.13
